Time;durP1;ratioP1;P1;durP2;ratioP2;P2;SDS_P1;SDS_P2;PMS_P1;PMS_P2;Temp;Humidity;BMP_temperature;BMP_pressure;BME280_temperature;BME280_humidity;BME280_pressure;Samples;Min_cycle;Max_cycle;Signal;HPM_P1;HPM_P2
2023/07/02 00:01:13;;;;;;;9.07;3.25;;;15.90;89.20;;;;;;5007963;28;20037;-66
2023/07/02 00:03:38;;;;;;;14.48;4.32;;;15.90;86.70;;;;;;5023086;28;20100;-65
2023/07/02 00:06:05;;;;;;;7.47;3.17;;;15.90;87.10;;;;;;5039933;28;20037;-66
2023/07/02 00:08:31;;;;;;;11.45;4.18;;;15.80;88.20;;;;;;5045723;28;20368;-65
2023/07/02 00:10:57;;;;;;;11.00;4.50;;;15.80;87.90;;;;;;5044640;28;20064;-66
2023/07/02 00:13:23;;;;;;;11.15;4.05;;;15.80;87.40;;;;;;5045996;28;20487;-66
2023/07/02 00:15:48;;;;;;;9.95;4.10;;;15.70;88.00;;;;;;5044243;28;20078;-66
2023/07/02 00:18:17;;;;;;;12.93;4.30;;;15.70;88.40;;;;;;5045459;28;20048;-66
2023/07/02 00:20:43;;;;;;;10.15;4.57;;;15.70;89.50;;;;;;5044317;28;20045;-65
2023/07/02 00:23:09;;;;;;;14.82;5.03;;;15.60;89.90;;;;;;5024293;28;20030;-65
2023/07/02 00:25:39;;;;;;;15.25;4.70;;;15.60;90.20;;;;;;5013531;28;20049;-65
2023/07/02 00:28:05;;;;;;;13.05;4.72;;;15.60;90.40;;;;;;5044924;28;20126;-66
2023/07/02 00:30:30;;;;;;;15.07;4.18;;;15.60;90.60;;;;;;5047535;28;20546;-66
2023/07/02 00:32:56;;;;;;;16.23;5.15;;;15.50;91.30;;;;;;5047714;28;20040;-65
2023/07/02 00:35:22;;;;;;;12.15;4.88;;;15.50;91.30;;;;;;5049851;28;20128;-66
2023/07/02 00:37:49;;;;;;;14.38;4.22;;;15.50;91.70;;;;;;5048254;28;20053;-66
2023/07/02 00:40:15;;;;;;;12.43;4.60;;;15.40;91.90;;;;;;5049047;28;20538;-65
2023/07/02 00:42:40;;;;;;;12.25;4.55;;;15.40;92.00;;;;;;5014140;28;20132;-66
2023/07/02 00:45:07;;;;;;;14.85;4.00;;;15.40;92.20;;;;;;5049230;28;20048;-65
2023/07/02 00:47:34;;;;;;;16.52;5.43;;;15.30;92.00;;;;;;5049761;28;20056;-66
2023/07/02 00:50:01;;;;;;;18.52;5.03;;;15.40;92.30;;;;;;5026798;28;20037;-66
2023/07/02 00:52:27;;;;;;;15.73;5.07;;;15.30;92.50;;;;;;5032162;28;20041;-66
2023/07/02 00:54:53;;;;;;;13.75;4.63;;;15.30;92.80;;;;;;5012944;28;20041;-65
2023/07/02 00:57:19;;;;;;;13.85;4.63;;;15.30;92.80;;;;;;5031443;28;20048;-66
2023/07/02 00:59:46;;;;;;;19.73;5.22;;;15.20;92.90;;;;;;5047940;28;20411;-65
2023/07/02 01:02:12;;;;;;;14.98;4.93;;;15.20;92.80;;;;;;5029870;28;20461;-65
2023/07/02 01:04:39;;;;;;;18.73;5.38;;;15.20;92.60;;;;;;5048977;28;20415;-65
2023/07/02 01:07:09;;;;;;;9.68;4.47;;;15.10;92.90;;;;;;5027636;28;20049;-66
2023/07/02 01:09:36;;;;;;;15.80;4.13;;;15.10;92.80;;;;;;5008655;28;20092;-65
2023/07/02 01:12:08;;;;;;;19.10;5.03;;;15.00;92.90;;;;;;5039687;28;20576;-65
2023/07/02 01:14:39;;;;;;;10.43;4.55;;;15.00;93.10;;;;;;5027840;28;20059;-65
2023/07/02 01:17:08;;;;;;;14.82;4.50;;;15.00;93.00;;;;;;5028244;28;20045;-65
2023/07/02 01:19:53;;;;;;;16.42;4.97;;;15.00;93.30;;;;;;5047351;28;20041;-65
2023/07/02 01:22:21;;;;;;;15.43;5.40;;;14.90;93.60;;;;;;5049108;28;20044;-65
2023/07/02 01:24:48;;;;;;;13.55;5.00;;;14.90;93.70;;;;;;5046877;28;20504;-65
2023/07/02 01:27:14;;;;;;;13.52;4.35;;;14.90;94.10;;;;;;5027970;28;20060;-65
2023/07/02 01:29:41;;;;;;;16.05;4.32;;;14.90;94.20;;;;;;5045591;28;20134;-65
2023/07/02 01:32:08;;;;;;;19.05;4.32;;;14.80;94.60;;;;;;5047674;28;20053;-65
2023/07/02 01:34:34;;;;;;;17.05;5.50;;;14.80;95.10;;;;;;5047617;28;20503;-65
2023/07/02 01:37:01;;;;;;;18.75;5.10;;;14.80;95.10;;;;;;5029991;28;20044;-65
2023/07/02 01:39:27;;;;;;;17.58;5.07;;;14.70;95.40;;;;;;5048608;28;20044;-65
2023/07/02 01:41:56;;;;;;;17.67;5.65;;;14.70;95.40;;;;;;5046522;28;20049;-65
2023/07/02 01:44:22;;;;;;;11.57;4.70;;;14.70;95.50;;;;;;5030461;28;20059;-65
2023/07/02 01:46:51;;;;;;;18.05;5.30;;;14.70;95.50;;;;;;5028663;28;20552;-65
2023/07/02 01:49:18;;;;;;;20.75;5.90;;;14.60;95.60;;;;;;5048492;28;20080;-65
2023/07/02 01:51:51;;;;;;;11.95;4.28;;;14.60;95.80;;;;;;5047249;28;20107;-65
2023/07/02 01:54:21;;;;;;;16.63;4.70;;;14.60;95.90;;;;;;5048111;28;20407;-65
2023/07/02 01:56:47;;;;;;;22.05;5.45;;;14.60;96.10;;;;;;5030357;28;20439;-65
2023/07/02 01:59:14;;;;;;;28.83;5.82;;;14.60;96.20;;;;;;5047140;28;20116;-65
2023/07/02 02:01:40;;;;;;;12.93;5.18;;;14.60;96.30;;;;;;5048247;28;20061;-65
2023/07/02 02:04:10;;;;;;;19.92;5.63;;;14.60;96.40;;;;;;5025223;28;20072;-65
2023/07/02 02:06:37;;;;;;;15.27;5.38;;;14.50;96.60;;;;;;5042596;28;20048;-64
2023/07/02 02:09:04;;;;;;;18.30;5.63;;;14.60;96.50;;;;;;5044927;28;20048;-64
2023/07/02 02:11:30;;;;;;;12.75;4.93;;;14.50;96.50;;;;;;5041330;28;20487;-65
2023/07/02 02:13:57;;;;;;;19.60;4.93;;;14.60;96.60;;;;;;5047567;28;20037;-65
2023/07/02 02:16:23;;;;;;;16.75;5.53;;;14.50;96.80;;;;;;5046578;28;20021;-65
2023/07/02 02:18:52;;;;;;;18.05;5.82;;;14.50;96.80;;;;;;5047905;28;20040;-65
2023/07/02 02:21:19;;;;;;;15.10;4.60;;;14.50;96.90;;;;;;5046088;28;20070;-65
2023/07/02 02:23:44;;;;;;;16.75;5.50;;;14.50;97.00;;;;;;5026883;28;20307;-65
2023/07/02 02:26:10;;;;;;;24.00;5.50;;;14.50;97.00;;;;;;5025643;28;20045;-65
2023/07/02 02:28:37;;;;;;;21.25;5.93;;;14.50;97.20;;;;;;5047745;28;20505;-65
2023/07/02 02:31:02;;;;;;;12.45;4.88;;;14.40;97.40;;;;;;5027959;28;20163;-65
2023/07/02 02:33:28;;;;;;;19.80;5.70;;;14.40;97.90;;;;;;5046872;28;20037;-65
2023/07/02 02:35:54;;;;;;;17.35;5.95;;;14.40;97.80;;;;;;5047654;28;20045;-64
2023/07/02 02:38:20;;;;;;;22.00;6.07;;;14.40;98.20;;;;;;5011534;28;20052;-65
2023/07/02 02:40:46;;;;;;;17.13;5.43;;;14.40;98.20;;;;;;5026516;28;20052;-65
2023/07/02 02:43:12;;;;;;;20.58;5.68;;;14.30;98.30;;;;;;5027638;28;20045;-65
2023/07/02 02:45:39;;;;;;;21.75;6.47;;;14.40;98.50;;;;;;5008689;28;20057;-65
2023/07/02 02:48:05;;;;;;;20.65;5.82;;;14.30;98.60;;;;;;5025107;28;20450;-65
2023/07/02 02:50:31;;;;;;;16.92;5.57;;;14.30;98.70;;;;;;5026039;28;20041;-65
2023/07/02 02:52:56;;;;;;;16.23;5.57;;;14.30;99.00;;;;;;5007464;28;20053;-65
2023/07/02 02:55:22;;;;;;;16.60;5.53;;;14.20;99.00;;;;;;5024873;28;20041;-64
2023/07/02 02:57:48;;;;;;;24.58;6.18;;;14.20;99.10;;;;;;5027020;28;20041;-65
2023/07/02 03:00:14;;;;;;;13.60;5.05;;;14.20;99.40;;;;;;5024191;28;20136;-65
2023/07/02 03:02:40;;;;;;;20.15;6.55;;;14.20;99.50;;;;;;4992109;28;20162;-65
2023/07/02 03:05:06;;;;;;;18.55;5.20;;;14.20;99.70;;;;;;5024721;28;20056;-65
2023/07/02 03:07:32;;;;;;;21.38;6.78;;;14.10;99.70;;;;;;5005007;28;20080;-65
2023/07/02 03:09:58;;;;;;;25.67;6.30;;;14.10;99.90;;;;;;5009823;28;20408;-64
2023/07/02 03:12:27;;;;;;;14.15;5.28;;;14.00;99.90;;;;;;5021106;28;20476;-65
2023/07/02 03:14:59;;;;;;;20.55;6.00;;;14.00;99.90;;;;;;5025852;28;20451;-65
2023/07/02 03:17:25;;;;;;;24.02;5.55;;;14.00;99.90;;;;;;5024738;28;20045;-64
2023/07/02 03:19:51;;;;;;;21.10;6.15;;;14.00;99.90;;;;;;5026777;28;20115;-65
2023/07/02 03:22:17;;;;;;;20.58;6.03;;;14.00;99.90;;;;;;5024838;28;20042;-65
2023/07/02 03:24:43;;;;;;;12.95;5.18;;;13.90;99.90;;;;;;5004383;28;20049;-65
2023/07/02 03:27:09;;;;;;;18.80;5.72;;;13.90;99.90;;;;;;4982315;28;20049;-65
2023/07/02 03:29:37;;;;;;;19.40;6.05;;;13.90;99.90;;;;;;5025155;28;20052;-65
2023/07/02 03:32:04;;;;;;;21.88;5.82;;;13.90;99.90;;;;;;5025900;28;20124;-65
2023/07/02 03:34:30;;;;;;;18.52;5.28;;;13.90;99.90;;;;;;5024096;28;20037;-64
2023/07/02 03:36:55;;;;;;;20.02;5.82;;;13.90;99.90;;;;;;4988813;28;20739;-65
2023/07/02 03:39:21;;;;;;;21.65;5.20;;;14.00;99.90;;;;;;5017709;28;20116;-65
2023/07/02 03:41:47;;;;;;;18.55;5.57;;;14.00;99.90;;;;;;5006806;28;20140;-65
2023/07/02 03:44:13;;;;;;;18.95;5.25;;;14.00;99.90;;;;;;4943339;28;2218503;-65
2023/07/02 03:46:38;;;;;;;17.90;5.40;;;14.00;99.90;;;;;;5008335;28;20099;-65
2023/07/02 03:49:05;;;;;;;23.42;6.57;;;14.00;99.90;;;;;;5004909;28;20052;-65
2023/07/02 03:51:31;;;;;;;19.63;5.65;;;14.00;99.90;;;;;;5020792;28;20503;-65
2023/07/02 03:53:58;;;;;;;15.43;5.50;;;14.00;99.90;;;;;;5026814;28;20045;-65
2023/07/02 03:56:24;;;;;;;14.93;5.10;;;14.10;99.90;;;;;;5024309;28;20395;-65
2023/07/02 03:58:50;;;;;;;20.25;5.40;;;14.10;99.90;;;;;;4991869;28;20048;-65
2023/07/02 04:01:16;;;;;;;22.75;5.13;;;14.10;99.90;;;;;;4995850;28;20129;-64
2023/07/02 04:03:49;;;;;;;16.73;5.82;;;14.10;99.90;;;;;;5023861;28;20056;-64
2023/07/02 04:06:16;;;;;;;24.15;6.38;;;14.10;99.90;;;;;;5004454;28;20060;-65
2023/07/02 04:08:42;;;;;;;20.13;5.50;;;14.10;99.90;;;;;;5004858;28;20060;-65
2023/07/02 04:11:08;;;;;;;16.42;5.47;;;14.20;99.90;;;;;;4994353;28;20034;-65
2023/07/02 04:13:34;;;;;;;26.50;6.28;;;14.20;99.90;;;;;;5024629;28;20056;-65
2023/07/02 04:16:00;;;;;;;22.33;5.75;;;14.20;99.90;;;;;;5026163;28;20048;-65
2023/07/02 04:18:26;;;;;;;22.40;5.13;;;14.20;99.90;;;;;;5024157;28;20396;-65
2023/07/02 04:20:53;;;;;;;16.95;5.38;;;14.30;99.90;;;;;;5026276;28;20053;-65
2023/07/02 04:23:18;;;;;;;16.48;5.10;;;14.30;99.90;;;;;;5003773;28;20048;-64
2023/07/02 04:25:44;;;;;;;24.17;6.18;;;14.40;99.90;;;;;;4972634;28;20049;-65
2023/07/02 04:28:10;;;;;;;15.93;5.13;;;14.40;99.90;;;;;;5024987;28;20811;-65
2023/07/02 04:30:36;;;;;;;18.00;5.97;;;14.50;99.90;;;;;;5006849;28;20088;-65
2023/07/02 04:33:01;;;;;;;24.98;5.75;;;14.60;99.90;;;;;;5016786;28;20096;-64
2023/07/02 04:35:27;;;;;;;22.58;5.05;;;14.60;99.90;;;;;;5024244;28;20056;-65
2023/07/02 04:37:53;;;;;;;22.35;6.28;;;14.60;99.90;;;;;;5026249;28;20893;-65
2023/07/02 04:40:19;;;;;;;18.52;5.25;;;14.80;99.90;;;;;;5024351;28;20037;-65
2023/07/02 04:42:47;;;;;;;17.55;6.57;;;14.90;99.90;;;;;;5025626;28;20539;-65
2023/07/02 04:45:15;;;;;;;23.48;5.38;;;14.90;99.80;;;;;;5007905;28;20060;-65
2023/07/02 04:47:45;;;;;;;15.70;5.32;;;14.90;99.70;;;;;;5024568;28;20454;-65
2023/07/02 04:50:11;;;;;;;13.60;4.95;;;15.00;99.50;;;;;;5025345;28;20507;-65
2023/07/02 04:52:38;;;;;;;23.42;6.10;;;15.00;98.20;;;;;;5024203;28;20053;-65
2023/07/02 04:55:04;;;;;;;15.77;5.75;;;15.00;98.20;;;;;;5007674;28;20045;-65
2023/07/02 04:57:30;;;;;;;16.02;5.35;;;15.00;97.90;;;;;;5024181;28;20256;-65
2023/07/02 04:59:56;;;;;;;22.80;6.15;;;15.00;97.50;;;;;;5025596;28;20613;-65
2023/07/02 05:02:22;;;;;;;16.40;5.75;;;15.00;97.50;;;;;;5025159;28;20049;-65
2023/07/02 05:04:48;;;;;;;22.75;5.82;;;15.10;97.70;;;;;;5024944;28;20454;-65
2023/07/02 05:07:15;;;;;;;19.35;5.97;;;15.10;97.70;;;;;;5007461;28;20049;-65
2023/07/02 05:09:41;;;;;;;15.55;5.70;;;15.10;97.50;;;;;;5016693;28;20058;-65
2023/07/02 05:12:07;;;;;;;16.10;5.70;;;15.20;97.40;;;;;;5019764;28;20046;-65
2023/07/02 05:14:34;;;;;;;19.15;5.22;;;15.20;96.40;;;;;;5023574;28;20046;-65
2023/07/02 05:16:59;;;;;;;19.20;5.85;;;15.30;95.30;;;;;;5028339;28;20049;-65
2023/07/02 05:19:25;;;;;;;19.38;5.32;;;15.40;95.40;;;;;;5006314;28;20180;-65
2023/07/02 05:21:51;;;;;;;15.52;5.57;;;15.40;95.70;;;;;;5000723;28;20053;-65
2023/07/02 05:24:16;;;;;;;18.85;6.40;;;15.40;95.10;;;;;;5028474;28;20060;-65
2023/07/02 05:26:42;;;;;;;18.63;5.80;;;15.40;94.60;;;;;;5027777;28;20057;-65
2023/07/02 05:29:08;;;;;;;15.45;5.70;;;15.40;94.50;;;;;;5028596;28;20048;-65
2023/07/02 05:31:34;;;;;;;21.33;5.30;;;15.40;92.70;;;;;;5007916;28;20053;-65
2023/07/02 05:34:00;;;;;;;13.55;5.00;;;15.40;91.50;;;;;;5029214;28;20431;-64
2023/07/02 05:36:26;;;;;;;13.63;4.78;;;15.50;91.90;;;;;;5005965;28;20053;-65
2023/07/02 05:38:52;;;;;;;15.30;4.75;;;15.50;92.30;;;;;;5017925;28;20052;-65
2023/07/02 05:41:19;;;;;;;14.55;4.63;;;15.50;91.10;;;;;;5027990;28;20041;-65
2023/07/02 05:43:44;;;;;;;11.77;4.03;;;15.60;87.80;;;;;;5021785;28;20122;-65
2023/07/02 05:46:12;;;;;;;19.05;4.85;;;15.60;87.20;;;;;;5048714;28;20056;-65
2023/07/02 05:48:38;;;;;;;17.08;5.30;;;15.70;89.80;;;;;;5025248;28;20158;-65
2023/07/02 05:51:04;;;;;;;19.52;5.82;;;15.80;85.70;;;;;;5036395;28;20053;-65
2023/07/02 05:53:29;;;;;;;14.35;4.47;;;15.90;85.80;;;;;;5023246;28;20475;-65
2023/07/02 05:55:55;;;;;;;14.00;4.18;;;16.00;84.80;;;;;;5038856;28;20045;-64
2023/07/02 05:58:23;;;;;;;9.43;4.25;;;16.10;75.50;;;;;;5046632;28;20529;-65
2023/07/02 06:00:50;;;;;;;16.13;4.55;;;16.10;69.00;;;;;;5047883;28;20049;-64
2023/07/02 06:03:21;;;;;;;12.50;3.83;;;16.10;68.20;;;;;;5030669;28;20072;-65
2023/07/02 06:05:50;;;;;;;15.32;5.13;;;16.00;68.70;;;;;;5025735;28;20056;-65
2023/07/02 06:08:17;;;;;;;12.88;3.78;;;16.10;69.60;;;;;;5020560;28;20411;-64
2023/07/02 06:10:46;;;;;;;14.65;4.30;;;16.10;69.60;;;;;;5014998;28;20045;-65
2023/07/02 06:13:11;;;;;;;20.00;4.35;;;16.20;65.00;;;;;;5047990;28;20052;-65
2023/07/02 06:15:37;;;;;;;11.60;3.22;;;16.20;72.10;;;;;;5028654;28;20284;-65
2023/07/02 06:18:03;;;;;;;10.43;3.55;;;16.20;65.20;;;;;;5029312;28;20591;-65
2023/07/02 06:20:29;;;;;;;9.73;3.65;;;16.30;60.90;;;;;;5047433;28;20049;-65
2023/07/02 06:22:55;;;;;;;9.05;3.20;;;16.40;67.10;;;;;;5029135;28;20049;-65
2023/07/02 06:25:20;;;;;;;10.10;3.67;;;16.40;56.50;;;;;;5029440;28;20053;-65
2023/07/02 06:27:46;;;;;;;10.52;3.78;;;16.40;55.20;;;;;;5045529;28;20048;-65
2023/07/02 06:30:13;;;;;;;13.10;4.90;;;16.40;55.50;;;;;;5046419;28;20044;-65
2023/07/02 06:32:38;;;;;;;9.20;3.90;;;16.40;58.50;;;;;;5024004;28;20048;-65
2023/07/02 06:35:07;;;;;;;17.00;3.63;;;16.50;60.20;;;;;;5012733;28;20483;-65
2023/07/02 06:37:33;;;;;;;13.63;3.47;;;16.50;60.30;;;;;;5026036;28;20046;-65
2023/07/02 06:39:59;;;;;;;15.27;3.88;;;16.60;55.10;;;;;;5045240;28;20082;-65
2023/07/02 06:42:25;;;;;;;14.93;3.83;;;16.50;55.00;;;;;;5047427;28;20041;-65
2023/07/02 06:44:51;;;;;;;13.70;3.80;;;16.60;61.30;;;;;;5027590;28;20053;-65
2023/07/02 06:47:17;;;;;;;10.20;3.25;;;16.60;61.00;;;;;;5046825;28;20108;-65
2023/07/02 06:49:43;;;;;;;16.23;4.45;;;16.70;61.40;;;;;;5027271;28;20120;-65
2023/07/02 06:52:09;;;;;;;16.48;4.50;;;16.70;57.20;;;;;;5029704;28;20044;-65
2023/07/02 06:54:34;;;;;;;16.35;4.43;;;16.80;59.70;;;;;;5045876;28;20089;-64
2023/07/02 06:57:00;;;;;;;10.38;3.65;;;16.80;59.30;;;;;;5025542;28;20088;-65
2023/07/02 06:59:26;;;;;;;11.05;4.40;;;17.00;56.30;;;;;;5037869;28;20072;-65
2023/07/02 07:01:52;;;;;;;12.43;3.65;;;17.00;32.60;;;;;;5027769;28;20048;-65
2023/07/02 07:04:18;;;;;;;10.57;2.88;;;17.00;36.90;;;;;;5028956;28;20048;-65
2023/07/02 07:06:44;;;;;;;6.43;2.30;;;17.00;27.80;;;;;;5045173;28;20846;-65
2023/07/02 07:09:10;;;;;;;9.07;3.50;;;17.00;17.70;;;;;;5026299;28;20447;-66
2023/07/02 07:11:35;;;;;;;10.50;3.83;;;17.20;30.30;;;;;;5017004;28;20475;-65
2023/07/02 07:14:01;;;;;;;11.68;3.25;;;17.30;22.80;;;;;;5046417;28;20483;-65
2023/07/02 07:16:27;;;;;;;8.30;2.95;;;17.10;9.70;;;;;;5024966;28;20384;-65
2023/07/02 07:18:53;;;;;;;2.80;1.50;;;16.90;24.20;;;;;;5039111;28;20105;-65
2023/07/02 07:21:19;;;;;;;9.02;3.53;;;16.50;29.20;;;;;;5025718;28;20060;-65
2023/07/02 07:23:45;;;;;;;13.30;3.40;;;16.40;29.10;;;;;;5018161;28;20037;-65
2023/07/02 07:26:11;;;;;;;10.90;2.08;;;16.40;32.00;;;;;;5045503;28;20041;-65
2023/07/02 07:28:37;;;;;;;11.70;3.78;;;16.70;30.50;;;;;;5045131;28;20040;-65
2023/07/02 07:31:02;;;;;;;10.45;3.20;;;16.90;33.70;;;;;;5046169;28;20059;-65
2023/07/02 07:33:28;;;;;;;10.18;3.30;;;17.20;6.30;;;;;;5045069;28;20091;-65
2023/07/02 07:35:54;;;;;;;11.23;3.42;;;17.50;8.10;;;;;;5011695;28;20485;-65
2023/07/02 07:38:21;;;;;;;7.82;2.88;;;17.70;1.00;;;;;;5046147;28;20116;-65
2023/07/02 07:40:47;;;;;;;7.95;2.63;;;17.90;5.00;;;;;;5043864;28;20047;-65
2023/07/02 07:43:13;;;;;;;8.95;2.72;;;17.90;7.80;;;;;;5040359;28;20049;-66
2023/07/02 07:45:38;;;;;;;4.72;1.60;;;17.70;1.00;;;;;;5003288;28;20046;-65
2023/07/02 07:48:09;;;;;;;11.90;2.20;;;17.60;1.00;;;;;;5004435;28;20050;-66
2023/07/02 07:50:34;;;;;;;5.85;2.00;;;17.50;1.00;;;;;;5024519;28;20075;-65
2023/07/02 07:53:00;;;;;;;10.68;2.67;;;17.80;1.00;;;;;;5008818;28;20045;-66
2023/07/02 07:55:26;;;;;;;4.20;2.15;;;18.20;1.00;;;;;;5014822;28;20472;-65
2023/07/02 07:57:52;;;;;;;7.20;1.98;;;18.40;1.00;;;;;;4999661;28;20498;-65
2023/07/02 08:00:18;;;;;;;10.80;2.55;;;18.50;1.00;;;;;;5023619;28;20168;-66
2023/07/02 08:02:49;;;;;;;9.02;2.25;;;18.70;1.00;;;;;;4999747;28;20492;-66
2023/07/02 08:05:15;;;;;;;7.63;2.10;;;19.00;1.00;;;;;;5013763;28;20049;-65
2023/07/02 08:07:41;;;;;;;7.50;2.10;;;18.80;1.00;;;;;;5000872;28;20056;-66
2023/07/02 08:10:10;;;;;;;7.00;1.95;;;18.50;1.00;;;;;;4983470;28;20408;-66
2023/07/02 08:12:36;;;;;;;8.00;1.83;;;18.60;1.00;;;;;;5017667;28;20045;-66
2023/07/02 08:15:02;;;;;;;9.32;2.53;;;18.80;1.00;;;;;;5016383;28;20385;-66
2023/07/02 08:17:30;;;;;;;9.55;2.17;;;18.70;1.00;;;;;;5020839;28;20102;-66
2023/07/02 08:19:56;;;;;;;6.13;1.85;;;18.30;1.00;;;;;;5017527;28;20041;-66
2023/07/02 08:22:22;;;;;;;5.13;1.70;;;18.10;1.00;;;;;;4995366;28;20081;-69
2023/07/02 08:24:49;;;;;;;5.82;2.20;;;18.30;1.00;;;;;;4991202;28;20084;-66
2023/07/02 08:27:18;;;;;;;8.63;2.45;;;18.40;1.00;;;;;;5009213;28;20057;-66
2023/07/02 08:29:45;;;;;;;10.10;1.52;;;18.20;1.00;;;;;;5023382;28;20103;-65
2023/07/02 08:32:11;;;;;;;6.55;2.08;;;18.10;1.00;;;;;;5025342;28;20117;-66
2023/07/02 08:34:37;;;;;;;6.72;1.98;;;18.10;1.00;;;;;;5018993;28;20124;-65
2023/07/02 08:37:03;;;;;;;7.80;2.13;;;18.50;1.00;;;;;;5006383;28;20045;-66
2023/07/02 08:39:30;;;;;;;4.97;1.48;;;18.50;1.00;;;;;;4996381;28;20053;-66
2023/07/02 08:41:55;;;;;;;10.52;1.90;;;18.30;1.00;;;;;;4985124;28;20147;-65
2023/07/02 08:44:22;;;;;;;3.50;1.75;;;18.20;1.00;;;;;;5020278;28;20054;-65
2023/07/02 08:46:50;;;;;;;5.95;1.90;;;17.90;1.00;;;;;;5024245;28;20045;-66
2023/07/02 08:49:17;;;;;;;7.53;2.00;;;17.80;1.00;;;;;;5024835;28;20448;-65
2023/07/02 08:51:47;;;;;;;8.85;2.22;;;17.60;1.00;;;;;;5009412;28;20053;-65
2023/07/02 08:54:14;;;;;;;;;;;17.60;1.00;;;;;;4997077;28;20125;-66
2023/07/02 08:56:40;;;;;;;4.70;2.00;;;17.40;1.00;;;;;;5020475;28;19945;-65
2023/07/02 08:59:09;;;;;;;5.22;1.55;;;17.30;1.00;;;;;;5008301;28;20060;-66
2023/07/02 09:01:46;;;;;;;8.70;2.85;;;17.20;1.00;;;;;;5008726;28;20530;-66
2023/07/02 09:04:19;;;;;;;7.95;2.30;;;17.20;1.00;;;;;;5025965;28;20057;-66
2023/07/02 09:06:47;;;;;;;13.60;2.95;;;17.20;1.00;;;;;;5026126;28;20077;-66
2023/07/02 09:09:13;;;;;;;10.43;2.60;;;17.50;1.00;;;;;;5023315;28;20049;-66
2023/07/02 09:11:49;;;;;;;4.72;2.53;;;17.90;1.00;;;;;;4983531;28;20056;-66
2023/07/02 09:14:32;;;;;;;6.20;0.98;;;18.20;1.00;;;;;;5024096;28;20051;-66
2023/07/02 09:17:06;;;;;;;10.15;2.92;;;18.50;1.00;;;;;;5027748;28;20053;-65
2023/07/02 09:19:33;;;;;;;6.57;2.33;;;18.80;1.00;;;;;;5027620;28;20049;-66
2023/07/02 09:22:00;;;;;;;10.20;2.55;;;18.80;1.00;;;;;;5027090;28;20045;-66
2023/07/02 09:24:28;;;;;;;10.77;2.40;;;18.50;1.00;;;;;;5027666;28;20057;-65
2023/07/02 09:26:59;;;;;;;7.95;2.40;;;18.10;1.00;;;;;;5029168;28;20048;-66
2023/07/02 09:29:30;;;;;;;15.85;2.80;;;18.10;1.00;;;;;;5007730;28;20045;-66
2023/07/02 09:31:59;;;;;;;10.38;1.95;;;18.10;1.00;;;;;;5029292;28;20053;-66
2023/07/02 09:34:32;;;;;;;7.28;2.30;;;18.60;1.00;;;;;;5007578;28;20050;-66
2023/07/02 09:37:00;;;;;;;2.47;1.55;;;18.90;1.00;;;;;;5007036;28;20141;-66
2023/07/02 09:39:31;;;;;;;5.40;1.73;;;19.20;1.00;;;;;;4985742;28;20539;-66
2023/07/02 09:41:58;;;;;;;5.85;1.88;;;19.50;1.00;;;;;;5009002;28;20439;-66
2023/07/02 09:44:31;;;;;;;5.43;2.20;;;19.60;1.00;;;;;;5028693;28;20069;-66
2023/07/02 09:47:07;;;;;;;8.52;2.47;;;19.40;1.00;;;;;;5026759;28;20460;-66
2023/07/02 09:49:35;;;;;;;6.47;1.92;;;19.10;1.00;;;;;;5028529;28;20088;-66
2023/07/02 09:52:10;;;;;;;9.85;2.58;;;18.90;1.00;;;;;;5025655;28;20499;-66
2023/07/02 09:54:37;;;;;;;8.20;2.42;;;18.80;1.00;;;;;;5020968;28;20451;-66
2023/07/02 09:57:04;;;;;;;7.78;2.10;;;18.70;1.00;;;;;;5010244;28;20499;-66
2023/07/02 09:59:30;;;;;;;14.98;2.40;;;18.80;1.00;;;;;;5026908;28;20131;-66
2023/07/02 10:01:57;;;;;;;7.55;2.05;;;18.90;1.00;;;;;;5026909;28;20049;-66
2023/07/02 10:04:23;;;;;;;6.07;1.70;;;19.00;1.00;;;;;;5008350;28;20045;-66
2023/07/02 10:06:55;;;;;;;4.47;2.05;;;19.10;1.00;;;;;;5027762;28;20064;-66
2023/07/02 10:09:34;;;;;;;4.15;1.33;;;19.20;1.00;;;;;;5023286;28;20397;-66
2023/07/02 10:12:00;;;;;;;4.97;1.40;;;19.20;1.00;;;;;;5019366;28;20053;-66
2023/07/02 10:14:26;;;;;;;11.90;2.20;;;19.00;1.00;;;;;;5028074;28;20046;-66
2023/07/02 10:16:55;;;;;;;4.38;1.63;;;18.60;1.00;;;;;;5026156;28;20064;-65
2023/07/02 10:19:21;;;;;;;10.75;1.40;;;18.50;1.00;;;;;;5028361;28;20116;-66
2023/07/02 10:22:04;;;;;;;3.67;1.23;;;18.60;1.00;;;;;;5026885;28;20056;-66
2023/07/02 10:24:30;;;;;;;6.18;1.25;;;19.00;1.00;;;;;;5027094;28;20045;-66
2023/07/02 10:27:01;;;;;;;4.88;1.85;;;19.20;1.00;;;;;;5027649;28;20393;-66
2023/07/02 10:29:28;;;;;;;4.10;1.75;;;19.30;1.00;;;;;;5026661;28;20052;-66
2023/07/02 10:31:56;;;;;;;4.68;1.60;;;19.10;1.00;;;;;;5027341;28;20080;-66
2023/07/02 10:34:35;;;;;;;10.98;1.98;;;18.90;1.00;;;;;;5025666;28;20049;-66
2023/07/02 10:37:02;;;;;;;9.70;2.35;;;18.60;1.00;;;;;;5027284;28;20045;-66
2023/07/02 10:39:32;;;;;;;7.45;1.50;;;18.60;1.00;;;;;;5026989;28;20068;-66
2023/07/02 10:42:08;;;;;;;;;;;19.00;1.00;;;;;;5027161;28;20049;-66
2023/07/02 10:44:47;;;;;;;7.28;1.80;;;19.00;1.00;;;;;;5026998;28;19972;-66
2023/07/02 10:47:12;;;;;;;5.38;1.60;;;19.00;1.00;;;;;;5025636;28;20713;-66
2023/07/02 10:49:38;;;;;;;5.18;1.80;;;19.00;1.00;;;;;;5006738;28;20053;-66
2023/07/02 10:52:05;;;;;;;5.65;1.88;;;18.90;1.00;;;;;;5005058;28;20124;-66
2023/07/02 10:54:46;;;;;;;7.88;1.88;;;18.80;1.00;;;;;;5019925;28;20041;-67
2023/07/02 10:57:16;;;;;;;5.25;2.15;;;18.80;1.00;;;;;;5026492;28;20049;-66
2023/07/02 10:59:41;;;;;;;5.50;1.63;;;18.80;1.00;;;;;;5026157;28;20038;-67
2023/07/02 11:02:09;;;;;;;8.60;1.63;;;18.80;1.00;;;;;;5009166;28;20037;-66
2023/07/02 11:04:37;;;;;;;11.65;2.05;;;18.80;1.00;;;;;;5025834;28;20053;-66
2023/07/02 11:07:04;;;;;;;3.78;1.77;;;18.80;1.00;;;;;;5005732;28;20049;-66
2023/07/02 11:09:30;;;;;;;4.03;1.80;;;18.80;1.00;;;;;;5010077;28;20049;-66
2023/07/02 11:11:59;;;;;;;7.07;2.33;;;18.70;1.00;;;;;;5018637;28;20041;-66
2023/07/02 11:14:33;;;;;;;8.60;2.53;;;18.60;1.00;;;;;;5023506;28;20045;-66
2023/07/02 11:17:03;;;;;;;10.55;2.22;;;18.40;1.00;;;;;;5024897;28;20184;-66
2023/07/02 11:19:29;;;;;;;5.53;1.90;;;18.50;1.00;;;;;;5006102;28;20049;-67
2023/07/02 11:21:57;;;;;;;4.82;2.92;;;18.80;1.00;;;;;;5015434;28;20048;-67
2023/07/02 11:24:28;;;;;;;4.63;1.45;;;18.70;1.00;;;;;;5007385;28;20049;-66
2023/07/02 11:26:53;;;;;;;7.82;1.95;;;18.70;1.00;;;;;;4993562;28;20053;-66
2023/07/02 11:29:19;;;;;;;3.75;1.35;;;18.70;1.00;;;;;;5021087;28;20231;-67
2023/07/02 11:31:45;;;;;;;5.07;1.75;;;18.80;1.00;;;;;;5021217;28;20044;-66
2023/07/02 11:34:15;;;;;;;4.63;1.95;;;18.70;1.00;;;;;;5006194;28;20893;-66
2023/07/02 11:36:41;;;;;;;7.00;1.80;;;18.40;1.00;;;;;;5026210;28;20439;-66
2023/07/02 11:39:07;;;;;;;7.32;1.95;;;18.30;1.00;;;;;;5023680;28;20041;-66
2023/07/02 11:41:40;;;;;;;6.00;1.80;;;18.40;1.00;;;;;;5007008;28;20525;-66
2023/07/02 11:44:06;;;;;;;8.48;2.33;;;18.50;1.00;;;;;;5014940;28;20393;-67
2023/07/02 11:46:33;;;;;;;3.60;1.58;;;18.50;1.00;;;;;;5005599;28;20057;-67
2023/07/02 11:49:01;;;;;;;3.60;1.38;;;18.60;1.00;;;;;;5016579;28;20041;-67
2023/07/02 11:51:26;;;;;;;4.45;1.73;;;18.50;1.00;;;;;;5009165;28;20053;-66
2023/07/02 11:53:52;;;;;;;5.22;1.88;;;18.60;1.00;;;;;;5024990;28;20053;-66
2023/07/02 11:56:18;;;;;;;8.50;2.45;;;18.80;1.00;;;;;;4984655;28;20120;-66
2023/07/02 11:58:44;;;;;;;5.13;2.30;;;18.70;1.00;;;;;;5019837;28;20046;-67
2023/07/02 12:01:10;;;;;;;8.05;2.25;;;18.60;1.00;;;;;;4997559;28;20175;-66
2023/07/02 12:03:36;;;;;;;3.72;1.50;;;18.50;1.00;;;;;;5014973;28;20057;-66
2023/07/02 12:06:02;;;;;;;3.42;1.63;;;18.50;1.00;;;;;;5017074;28;20453;-67
2023/07/02 12:08:28;;;;;;;5.15;1.27;;;18.30;1.00;;;;;;5019529;28;20463;-66
2023/07/02 12:10:53;;;;;;;7.88;1.98;;;18.30;1.00;;;;;;4999726;28;20037;-66
2023/07/02 12:13:23;;;;;;;2.92;1.20;;;18.40;1.00;;;;;;5022288;28;20408;-66
2023/07/02 12:15:52;;;;;;;1.35;1.20;;;18.50;1.00;;;;;;5006210;28;20041;-67
2023/07/02 12:18:18;;;;;;;3.70;1.63;;;18.70;1.00;;;;;;5020559;28;20111;-67
2023/07/02 12:20:43;;;;;;;6.82;1.95;;;18.90;1.00;;;;;;5002963;28;20037;-67
2023/07/02 12:23:12;;;;;;;6.93;1.92;;;19.10;1.00;;;;;;5023742;28;20046;-67
2023/07/02 12:25:39;;;;;;;3.33;1.43;;;19.00;1.00;;;;;;5024809;28;20049;-66
2023/07/02 12:28:05;;;;;;;5.60;1.70;;;18.80;1.00;;;;;;4991723;28;20542;-67
2023/07/02 12:30:31;;;;;;;4.75;1.42;;;18.70;1.00;;;;;;5016875;28;20045;-66
2023/07/02 12:32:57;;;;;;;5.50;1.67;;;18.70;1.00;;;;;;5028413;28;20498;-66
2023/07/02 12:35:23;;;;;;;4.97;1.52;;;18.80;1.00;;;;;;5027270;28;20049;-67
2023/07/02 12:37:53;;;;;;;4.00;1.70;;;18.90;1.00;;;;;;5029582;28;20565;-66
2023/07/02 12:40:20;;;;;;;3.13;1.35;;;18.80;1.00;;;;;;5023049;28;20046;-66
2023/07/02 12:42:47;;;;;;;7.25;1.50;;;18.80;1.00;;;;;;5008132;28;20191;-67
2023/07/02 12:45:14;;;;;;;3.05;1.05;;;18.70;1.00;;;;;;5028514;28;20057;-66